Time;durP1;ratioP1;P1;durP2;ratioP2;P2;SDS_P1;SDS_P2;PMS_P1;PMS_P2;Temp;Humidity;BMP_temperature;BMP_pressure;BME280_temperature;BME280_humidity;BME280_pressure;Samples;Min_cycle;Max_cycle;Signal;HPM_P1;HPM_P2
2021/06/25 00:00:06;;;;;;;6.67;5.10;;;18.10;99.90;;;;;;1926763;73;21088;-82
2021/06/25 00:02:33;;;;;;;7.47;5.08;;;18.10;99.90;;;;;;1926740;73;21476;-80
2021/06/25 00:05:01;;;;;;;8.18;5.50;;;18.10;99.90;;;;;;1927737;73;21198;-81
2021/06/25 00:07:28;;;;;;;7.72;5.35;;;18.00;99.90;;;;;;1926484;73;21325;-81
2021/06/25 00:09:56;;;;;;;9.43;6.03;;;18.00;99.90;;;;;;1922502;73;21396;-80
2021/06/25 00:12:24;;;;;;;8.75;5.30;;;18.10;99.90;;;;;;1927807;73;21045;-81
2021/06/25 00:14:51;;;;;;;9.78;5.50;;;18.10;99.90;;;;;;1926866;73;21021;-82
2021/06/25 00:17:19;;;;;;;8.15;5.25;;;18.10;99.90;;;;;;1927338;73;21097;-82
2021/06/25 00:19:46;;;;;;;10.85;5.90;;;18.10;99.90;;;;;;1926970;73;21158;-81
2021/06/25 00:22:14;;;;;;;8.73;5.40;;;18.20;99.90;;;;;;1941828;72;21094;-81
2021/06/25 00:24:41;;;;;;;10.82;5.92;;;18.10;99.90;;;;;;1927914;73;21037;-81
2021/06/25 00:27:09;;;;;;;9.68;5.97;;;18.20;99.90;;;;;;1927095;73;21256;-82
2021/06/25 00:29:36;;;;;;;8.18;5.92;;;18.20;99.90;;;;;;1925825;73;21706;-81
2021/06/25 00:32:04;;;;;;;11.22;5.92;;;18.20;99.90;;;;;;1926892;74;21336;-81
2021/06/25 00:34:32;;;;;;;11.83;6.55;;;18.20;99.90;;;;;;1925772;73;21029;-81
2021/06/25 00:36:59;;;;;;;10.15;6.42;;;18.20;99.90;;;;;;1908987;73;21645;-80
2021/06/25 00:39:27;;;;;;;8.48;6.10;;;18.20;99.90;;;;;;1926779;73;21160;-81
2021/06/25 00:41:55;;;;;;;7.78;6.28;;;18.30;99.90;;;;;;1926619;73;21182;-82
2021/06/25 00:44:23;;;;;;;10.60;6.35;;;18.20;99.90;;;;;;1926657;73;21127;-81
2021/06/25 00:46:50;;;;;;;11.35;6.75;;;18.10;99.90;;;;;;1926687;73;21104;-81
2021/06/25 00:49:18;;;;;;;8.98;6.33;;;18.00;99.90;;;;;;1926053;73;21053;-81
2021/06/25 00:51:46;;;;;;;10.82;6.42;;;18.00;99.90;;;;;;1925050;73;21128;-81
2021/06/25 00:54:15;;;;;;;9.78;6.45;;;18.00;99.90;;;;;;1925727;73;21053;-80
2021/06/25 00:56:43;;;;;;;11.35;6.65;;;18.00;99.90;;;;;;1925562;73;21218;-80
2021/06/25 00:59:10;;;;;;;10.75;7.05;;;17.90;99.90;;;;;;1926507;73;21226;-81
2021/06/25 01:01:38;;;;;;;11.08;7.10;;;17.80;99.90;;;;;;1925667;73;21127;-80
2021/06/25 01:04:06;;;;;;;10.68;7.30;;;17.80;99.90;;;;;;1926315;73;21053;-79
2021/06/25 01:06:34;;;;;;;11.10;7.85;;;17.80;99.90;;;;;;1926692;73;21206;-80
2021/06/25 01:09:04;;;;;;;9.93;6.87;;;17.70;99.90;;;;;;1926447;73;21533;-80
2021/06/25 01:11:32;;;;;;;12.15;7.72;;;17.80;99.90;;;;;;1926807;73;21092;-80
2021/06/25 01:13:59;;;;;;;11.03;7.62;;;17.70;99.90;;;;;;1925896;73;21085;-80
2021/06/25 01:16:27;;;;;;;12.75;7.72;;;17.60;99.90;;;;;;1924970;73;21152;-81
2021/06/25 01:18:55;;;;;;;11.10;7.75;;;17.60;99.90;;;;;;1926798;74;21094;-81
2021/06/25 01:21:23;;;;;;;12.30;8.23;;;17.60;99.90;;;;;;1925865;74;21100;-81
2021/06/25 01:23:51;;;;;;;12.33;8.30;;;17.60;99.90;;;;;;1926393;73;21074;-81
2021/06/25 01:26:18;;;;;;;13.00;8.30;;;17.60;99.90;;;;;;1926402;73;21088;-81
2021/06/25 01:28:47;;;;;;;12.00;8.00;;;17.60;99.90;;;;;;1928005;74;21096;-80
2021/06/25 01:31:14;;;;;;;12.43;8.28;;;17.60;99.90;;;;;;1930169;73;21170;-81
2021/06/25 01:33:42;;;;;;;11.73;7.58;;;17.60;99.90;;;;;;1930444;73;21088;-83
2021/06/25 01:36:10;;;;;;;10.88;8.20;;;17.60;99.90;;;;;;1930049;73;21124;-81
2021/06/25 01:38:39;;;;;;;12.00;7.90;;;17.60;99.90;;;;;;1930324;73;21096;-81
2021/06/25 01:41:07;;;;;;;10.63;7.80;;;17.60;99.90;;;;;;1929127;73;21022;-80
2021/06/25 01:43:37;;;;;;;9.28;7.78;;;17.60;99.90;;;;;;1929995;73;21110;-81
2021/06/25 01:46:06;;;;;;;12.93;7.83;;;17.60;99.90;;;;;;1929242;73;21194;-80
2021/06/25 01:48:34;;;;;;;12.40;7.95;;;17.60;99.90;;;;;;1929621;74;21147;-81
2021/06/25 01:51:02;;;;;;;10.50;7.70;;;17.60;99.90;;;;;;1926528;73;21584;-80
2021/06/25 01:53:29;;;;;;;11.48;7.78;;;17.70;99.90;;;;;;1929438;73;21166;-80
2021/06/25 01:56:00;;;;;;;12.95;8.58;;;17.70;99.90;;;;;;1928319;73;21496;-80
2021/06/25 01:58:31;;;;;;;12.50;7.65;;;17.60;99.90;;;;;;1916414;73;21171;-80
2021/06/25 02:01:10;;;;;;;13.88;8.70;;;17.60;99.90;;;;;;1928968;73;21135;-80
2021/06/25 02:03:47;;;;;;;14.15;8.53;;;17.60;99.90;;;;;;1928628;73;21089;-80
2021/06/25 02:06:13;;;;;;;12.50;9.15;;;17.60;99.90;;;;;;1925240;73;21070;-79
2021/06/25 02:08:41;;;;;;;12.80;8.25;;;17.60;99.90;;;;;;1924379;73;21059;-80
2021/06/25 02:11:10;;;;;;;13.85;9.78;;;17.60;99.90;;;;;;1928452;73;21108;-79
2021/06/25 02:13:38;;;;;;;12.33;9.68;;;17.60;99.90;;;;;;1928037;73;21112;-80
2021/06/25 02:16:06;;;;;;;12.98;8.93;;;17.60;99.90;;;;;;1928649;73;21081;-80
2021/06/25 02:18:33;;;;;;;13.43;9.33;;;17.50;99.90;;;;;;1927390;73;21010;-80
2021/06/25 02:21:01;;;;;;;13.50;9.18;;;17.50;99.90;;;;;;1927829;73;21570;-81
2021/06/25 02:23:29;;;;;;;13.95;9.40;;;17.40;99.90;;;;;;1928295;73;21105;-81
2021/06/25 02:25:57;;;;;;;11.88;9.23;;;17.40;99.90;;;;;;1932041;73;21113;-82
2021/06/25 02:28:24;;;;;;;12.70;9.35;;;17.30;99.90;;;;;;1927793;74;21104;-81
2021/06/25 02:30:52;;;;;;;14.38;8.60;;;17.30;99.90;;;;;;1927517;73;21100;-81
2021/06/25 02:33:19;;;;;;;12.28;8.85;;;17.40;99.90;;;;;;1927799;73;21594;-81
2021/06/25 02:35:47;;;;;;;15.05;8.75;;;17.40;99.90;;;;;;1925166;73;21139;-82
2021/06/25 02:38:15;;;;;;;12.88;8.83;;;17.30;99.90;;;;;;1929578;73;21116;-80
2021/06/25 02:40:43;;;;;;;12.20;8.48;;;17.30;99.90;;;;;;1928522;73;21504;-82
2021/06/25 02:43:10;;;;;;;11.70;9.23;;;17.20;99.90;;;;;;1929661;73;21135;-82
2021/06/25 02:45:38;;;;;;;12.70;9.15;;;17.20;99.90;;;;;;1929059;73;21646;-80
2021/06/25 02:48:06;;;;;;;13.28;9.15;;;17.20;99.90;;;;;;1928739;73;21484;-81
2021/06/25 02:50:34;;;;;;;11.75;8.48;;;17.20;99.90;;;;;;1929525;73;21186;-80
2021/06/25 02:53:01;;;;;;;12.58;9.25;;;17.20;99.90;;;;;;1928733;73;21131;-81
2021/06/25 02:55:29;;;;;;;11.60;8.83;;;17.10;99.90;;;;;;1929540;73;21061;-81
2021/06/25 02:57:56;;;;;;;14.58;8.75;;;17.10;99.90;;;;;;1930067;73;21178;-78
2021/06/25 03:00:24;;;;;;;12.35;9.15;;;17.20;99.90;;;;;;1930082;73;21124;-80
2021/06/25 03:02:52;;;;;;;13.10;8.88;;;17.10;99.90;;;;;;1929024;73;21059;-81
2021/06/25 03:05:20;;;;;;;13.48;8.63;;;17.10;99.90;;;;;;1929802;73;21124;-81
2021/06/25 03:07:48;;;;;;;9.95;8.20;;;17.10;99.90;;;;;;1930173;73;22442;-80
2021/06/25 03:10:15;;;;;;;12.28;8.80;;;17.10;99.90;;;;;;1908833;73;21040;-80
2021/06/25 03:12:43;;;;;;;11.83;8.28;;;17.10;99.90;;;;;;1923142;73;21037;-80
2021/06/25 03:15:11;;;;;;;13.95;9.33;;;17.10;99.90;;;;;;1930260;73;21163;-81
2021/06/25 03:17:38;;;;;;;11.90;8.20;;;17.10;99.90;;;;;;1929870;73;21061;-80
2021/06/25 03:20:07;;;;;;;13.55;8.48;;;17.10;99.90;;;;;;1929807;73;21170;-80
2021/06/25 03:22:35;;;;;;;10.40;8.63;;;17.10;99.90;;;;;;1929487;73;21045;-79
2021/06/25 03:25:04;;;;;;;13.65;8.45;;;17.10;99.90;;;;;;1925060;73;21472;-80
2021/06/25 03:27:34;;;;;;;11.60;8.48;;;17.00;99.90;;;;;;1929149;73;21045;-82
2021/06/25 03:30:01;;;;;;;12.85;8.68;;;17.00;99.90;;;;;;1916788;73;21103;-81
2021/06/25 03:32:29;;;;;;;11.00;8.23;;;17.00;99.90;;;;;;1910640;73;21088;-81
2021/06/25 03:34:57;;;;;;;11.75;8.13;;;17.00;99.90;;;;;;1928795;73;21080;-80
2021/06/25 03:37:24;;;;;;;15.53;8.30;;;17.00;99.90;;;;;;1929411;73;21091;-81
2021/06/25 03:39:52;;;;;;;13.83;8.18;;;17.00;99.90;;;;;;1928854;73;21573;-80
2021/06/25 03:42:19;;;;;;;12.47;8.28;;;17.00;99.90;;;;;;1928098;73;21120;-80
2021/06/25 03:44:47;;;;;;;9.08;8.03;;;17.00;99.90;;;;;;1927226;73;21143;-80
2021/06/25 03:47:15;;;;;;;12.20;8.48;;;17.00;99.90;;;;;;1929333;74;22142;-80
2021/06/25 03:49:42;;;;;;;10.65;7.70;;;16.90;99.90;;;;;;1896653;73;21167;-79
2021/06/25 03:52:10;;;;;;;13.93;8.48;;;16.80;99.90;;;;;;1927689;73;21634;-80
2021/06/25 03:54:37;;;;;;;12.10;8.45;;;16.90;99.90;;;;;;1918463;73;21053;-81
2021/06/25 03:57:05;;;;;;;14.55;8.50;;;16.90;99.90;;;;;;1926159;73;21132;-81
2021/06/25 03:59:34;;;;;;;12.05;9.33;;;16.80;99.90;;;;;;1922186;73;21085;-81
2021/06/25 04:02:03;;;;;;;11.43;8.63;;;16.80;99.90;;;;;;1924574;73;21077;-81
2021/06/25 04:04:31;;;;;;;11.22;8.20;;;16.80;99.90;;;;;;1928525;73;21132;-81
2021/06/25 04:06:58;;;;;;;10.45;7.95;;;16.80;99.90;;;;;;1925758;73;21052;-81
2021/06/25 04:09:26;;;;;;;13.43;8.28;;;16.80;99.90;;;;;;1921074;73;21158;-81
2021/06/25 04:11:54;;;;;;;10.68;8.30;;;16.80;99.90;;;;;;1915824;73;21495;-81
2021/06/25 04:14:22;;;;;;;10.60;8.13;;;16.80;99.90;;;;;;1925197;73;21002;-81
2021/06/25 04:16:49;;;;;;;15.28;9.70;;;16.80;99.90;;;;;;1928707;73;21562;-81
2021/06/25 04:19:17;;;;;;;14.33;10.95;;;16.90;99.90;;;;;;1929071;73;21014;-80
2021/06/25 04:21:44;;;;;;;13.85;10.88;;;16.80;99.90;;;;;;1928797;73;21018;-81
2021/06/25 04:24:12;;;;;;;12.43;10.28;;;16.90;99.90;;;;;;1929985;73;21114;-82
2021/06/25 04:26:40;;;;;;;15.13;10.65;;;16.90;99.90;;;;;;1931298;73;21187;-81
2021/06/25 04:29:10;;;;;;;15.15;10.80;;;16.90;99.90;;;;;;1928539;73;21422;-80
2021/06/25 04:31:38;;;;;;;13.75;9.70;;;17.00;99.90;;;;;;1923837;73;21188;-81
2021/06/25 04:34:06;;;;;;;17.32;11.12;;;17.00;99.90;;;;;;1928247;73;21491;-80
2021/06/25 04:36:38;;;;;;;15.10;11.08;;;17.00;99.90;;;;;;1927968;73;21678;-79
2021/06/25 04:39:05;;;;;;;14.07;9.90;;;17.10;99.90;;;;;;1917702;73;21198;-80
2021/06/25 04:41:34;;;;;;;14.50;10.10;;;17.10;99.90;;;;;;1920669;73;21158;-80
2021/06/25 04:44:03;;;;;;;14.78;10.30;;;17.10;99.90;;;;;;1930128;73;21049;-78
2021/06/25 04:46:32;;;;;;;13.30;10.00;;;17.20;99.90;;;;;;1930317;73;21178;-79
2021/06/25 04:48:59;;;;;;;14.43;9.95;;;17.20;99.90;;;;;;1929597;73;21037;-81
2021/06/25 04:51:27;;;;;;;12.60;9.28;;;17.30;99.90;;;;;;1929669;73;21107;-77
2021/06/25 04:53:54;;;;;;;14.65;9.75;;;17.30;99.90;;;;;;1929594;73;21069;-81
2021/06/25 04:56:22;;;;;;;13.58;9.55;;;17.30;99.90;;;;;;1929105;73;21065;-79
2021/06/25 04:58:50;;;;;;;13.38;9.33;;;17.40;99.90;;;;;;1922267;73;21072;-81
2021/06/25 05:01:17;;;;;;;16.12;8.70;;;17.50;99.90;;;;;;1928977;73;21100;-81
2021/06/25 05:03:45;;;;;;;12.30;8.10;;;17.50;99.90;;;;;;1928840;73;21613;-81
2021/06/25 05:06:12;;;;;;;9.90;7.35;;;17.60;99.90;;;;;;1904774;73;21581;-80
2021/06/25 05:08:40;;;;;;;9.58;6.90;;;17.60;99.90;;;;;;1918376;73;21551;-79
2021/06/25 05:11:07;;;;;;;8.50;6.60;;;17.70;99.90;;;;;;1928001;73;21126;-85
2021/06/25 05:13:35;;;;;;;10.50;6.70;;;17.80;99.90;;;;;;1925929;73;21819;-79
2021/06/25 05:16:02;;;;;;;11.15;7.00;;;17.80;99.90;;;;;;1920410;73;21077;-80
2021/06/25 05:18:30;;;;;;;12.15;7.72;;;17.90;99.90;;;;;;1886416;74;21156;-82
2021/06/25 05:20:57;;;;;;;15.23;6.75;;;18.00;99.90;;;;;;1858086;75;21135;-82
2021/06/25 05:23:25;;;;;;;11.18;7.42;;;18.00;99.90;;;;;;1877628;75;21109;-82
2021/06/25 05:25:54;;;;;;;11.90;7.35;;;18.10;99.90;;;;;;1928104;73;21117;-82
2021/06/25 05:28:22;;;;;;;9.93;6.80;;;18.20;99.90;;;;;;1925050;73;21065;-81
2021/06/25 05:30:49;;;;;;;10.00;7.12;;;18.20;99.90;;;;;;1919741;73;21099;-83
2021/06/25 05:33:17;;;;;;;10.10;6.78;;;18.30;99.90;;;;;;1923009;73;21091;-80
2021/06/25 05:35:45;;;;;;;13.68;7.22;;;18.30;99.90;;;;;;1895234;71;21045;-77
2021/06/25 05:38:17;;;;;;;8.65;6.45;;;18.30;99.90;;;;;;1891316;74;21158;-77
2021/06/25 05:40:42;;;;;;;13.13;7.20;;;18.40;99.90;;;;;;1898101;74;21156;-76
2021/06/25 05:43:11;;;;;;;8.83;6.40;;;18.50;99.90;;;;;;1895204;74;21125;-77
2021/06/25 05:45:39;;;;;;;12.68;6.87;;;18.40;99.90;;;;;;1885676;74;21637;-76
2021/06/25 05:48:08;;;;;;;12.98;7.72;;;18.50;99.90;;;;;;1913943;74;21072;-76
2021/06/25 05:50:38;;;;;;;12.07;8.20;;;18.50;99.90;;;;;;1896594;75;21064;-76
2021/06/25 05:53:06;;;;;;;18.85;8.83;;;18.50;99.90;;;;;;1896605;74;21084;-76
2021/06/25 05:55:34;;;;;;;13.08;7.80;;;18.50;99.90;;;;;;1924224;74;22047;-76
2021/06/25 05:58:02;;;;;;;17.05;10.38;;;18.60;99.90;;;;;;1922935;74;21502;-75
2021/06/25 06:00:30;;;;;;;17.90;10.03;;;18.60;99.90;;;;;;1899498;74;21159;-75
2021/06/25 06:02:57;;;;;;;14.38;9.40;;;18.60;99.90;;;;;;1902838;74;22613;-77
2021/06/25 06:05:25;;;;;;;12.30;9.45;;;18.70;99.90;;;;;;1900614;74;21283;-77
2021/06/25 06:07:52;;;;;;;15.80;8.58;;;18.70;99.90;;;;;;1909728;74;21178;-76
2021/06/25 06:10:20;;;;;;;20.65;9.25;;;18.70;99.90;;;;;;1940651;74;21040;-77
2021/06/25 06:12:48;;;;;;;17.50;9.40;;;18.70;99.90;;;;;;1909410;74;21084;-76
2021/06/25 06:15:17;;;;;;;17.95;8.28;;;18.70;99.90;;;;;;1922107;74;21104;-77
2021/06/25 06:17:49;;;;;;;13.65;8.10;;;18.70;99.90;;;;;;1895136;74;21227;-77
2021/06/25 06:20:22;;;;;;;14.40;8.65;;;18.60;99.90;;;;;;1910643;74;21105;-75
2021/06/25 06:31:21;;;;;;;14.63;6.62;;;18.80;99.90;;;;;;1895897;75;21112;-73
2021/06/25 06:33:55;;;;;;;11.40;7.53;;;18.80;99.90;;;;;;1900662;74;21100;-74
2021/06/25 06:36:32;;;;;;;11.38;7.78;;;18.90;99.90;;;;;;1899276;74;21097;-75
2021/06/25 06:38:59;;;;;;;11.45;7.47;;;18.90;99.90;;;;;;1917839;74;21078;-74
2021/06/25 06:41:28;;;;;;;13.38;7.08;;;19.00;99.90;;;;;;1925617;74;21038;-74
2021/06/25 06:43:56;;;;;;;9.63;7.10;;;19.10;99.90;;;;;;1897459;75;21041;-74
2021/06/25 06:46:24;;;;;;;14.10;7.33;;;19.20;99.90;;;;;;1904857;74;21049;-74
2021/06/25 06:48:52;;;;;;;16.62;7.17;;;19.20;99.90;;;;;;1896125;75;21092;-74
2021/06/25 06:51:21;;;;;;;18.37;8.28;;;19.30;99.90;;;;;;1899216;74;21082;-74
2021/06/25 06:53:49;;;;;;;16.73;7.20;;;19.30;99.90;;;;;;1896346;75;21121;-74
2021/06/25 06:56:20;;;;;;;11.12;7.15;;;19.30;99.90;;;;;;1897224;74;21140;-73
2021/06/25 06:58:52;;;;;;;13.62;7.08;;;19.30;99.90;;;;;;1897277;74;21583;-75
2021/06/25 07:01:23;;;;;;;14.78;7.78;;;19.30;99.90;;;;;;1906234;74;21077;-75
2021/06/25 07:03:51;;;;;;;12.93;6.85;;;19.40;99.90;;;;;;1928221;74;22232;-76
2021/06/25 07:06:18;;;;;;;10.75;6.05;;;19.40;99.90;;;;;;1911184;74;21077;-76
2021/06/25 07:08:46;;;;;;;12.60;6.50;;;19.40;99.90;;;;;;1913468;74;21096;-76
2021/06/25 07:11:15;;;;;;;12.07;5.72;;;19.50;99.90;;;;;;1925248;74;21077;-76
2021/06/25 07:13:43;;;;;;;11.63;5.53;;;19.50;99.90;;;;;;1927675;74;21077;-76
2021/06/25 07:16:14;;;;;;;14.73;6.20;;;19.50;99.90;;;;;;1908487;74;21037;-74
2021/06/25 07:18:42;;;;;;;9.43;5.83;;;19.50;99.90;;;;;;1917938;74;21116;-73
2021/06/25 07:21:11;;;;;;;11.08;6.37;;;19.60;99.90;;;;;;1926839;74;21151;-73
2021/06/25 07:23:38;;;;;;;11.35;6.10;;;19.60;99.90;;;;;;1900896;74;21045;-73
2021/06/25 07:26:06;;;;;;;11.00;6.87;;;19.60;99.90;;;;;;1899138;74;21156;-74
2021/06/25 07:28:35;;;;;;;10.00;7.25;;;19.70;99.90;;;;;;1864667;77;21026;-74
2021/06/25 07:31:03;;;;;;;10.03;7.28;;;19.70;99.90;;;;;;1913981;74;21186;-74
2021/06/25 07:33:31;;;;;;;14.28;7.20;;;19.80;99.90;;;;;;1930201;74;21068;-74
2021/06/25 07:35:59;;;;;;;9.30;6.37;;;19.90;99.90;;;;;;1929813;74;21199;-74
2021/06/25 07:38:26;;;;;;;9.55;6.97;;;20.00;99.90;;;;;;1913116;74;21190;-74
2021/06/25 07:40:54;;;;;;;8.58;6.12;;;20.10;99.90;;;;;;1900188;74;21331;-75
2021/06/25 07:43:21;;;;;;;11.80;6.12;;;20.10;99.90;;;;;;1929933;74;21172;-76
2021/06/25 07:45:49;;;;;;;8.73;6.58;;;20.10;99.90;;;;;;1909068;74;21140;-75
2021/06/25 07:48:17;;;;;;;9.88;7.30;;;20.10;99.90;;;;;;1919875;74;21085;-75
2021/06/25 07:50:44;;;;;;;12.45;6.35;;;20.10;99.90;;;;;;1915184;74;21093;-76
2021/06/25 07:53:12;;;;;;;8.45;6.92;;;20.20;99.90;;;;;;1914870;74;21579;-75
2021/06/25 07:55:43;;;;;;;11.53;6.72;;;20.30;99.90;;;;;;1898666;74;21640;-75
2021/06/25 07:58:12;;;;;;;14.18;6.60;;;20.40;99.90;;;;;;1904951;74;21080;-75
2021/06/25 08:00:40;;;;;;;9.63;7.15;;;20.40;99.90;;;;;;1931387;74;22122;-75
2021/06/25 08:03:08;;;;;;;8.15;6.30;;;20.40;99.90;;;;;;1924156;74;21073;-76
2021/06/25 08:05:36;;;;;;;7.78;6.33;;;20.40;99.90;;;;;;1934523;74;21515;-77
2021/06/25 08:08:04;;;;;;;8.18;6.58;;;20.50;99.90;;;;;;1929551;74;21225;-77
2021/06/25 08:10:32;;;;;;;9.45;7.55;;;20.50;99.90;;;;;;1909180;74;21108;-76
2021/06/25 08:13:00;;;;;;;9.93;7.00;;;20.50;99.90;;;;;;1910197;74;21096;-77
2021/06/25 08:15:28;;;;;;;8.95;7.28;;;20.40;99.90;;;;;;1910896;74;21138;-76
2021/06/25 08:17:55;;;;;;;9.20;6.50;;;20.50;99.90;;;;;;1923843;74;21100;-76
2021/06/25 08:20:23;;;;;;;8.30;6.62;;;20.60;99.90;;;;;;1902694;74;21037;-76
2021/06/25 08:22:50;;;;;;;11.10;6.90;;;20.60;99.90;;;;;;1916489;74;21072;-76
2021/06/25 08:25:18;;;;;;;9.00;5.85;;;20.70;99.90;;;;;;1922133;74;21060;-78
2021/06/25 08:27:46;;;;;;;12.45;8.03;;;20.80;99.90;;;;;;1909964;74;21081;-75
2021/06/25 08:30:14;;;;;;;15.25;7.78;;;20.70;99.90;;;;;;1933737;74;21642;-74
2021/06/25 08:32:43;;;;;;;8.53;7.05;;;20.70;99.90;;;;;;1919820;74;21116;-75
2021/06/25 08:35:12;;;;;;;9.25;7.22;;;20.70;99.90;;;;;;1912509;74;21160;-76
2021/06/25 08:37:39;;;;;;;11.85;8.10;;;20.90;99.90;;;;;;1920488;74;21196;-75
2021/06/25 08:40:08;;;;;;;10.78;7.92;;;20.90;99.90;;;;;;1912033;74;21014;-76
2021/06/25 08:42:38;;;;;;;10.23;8.18;;;21.00;99.90;;;;;;1920706;74;21125;-76
2021/06/25 08:45:07;;;;;;;12.30;9.50;;;21.00;99.90;;;;;;1908934;74;21092;-75
2021/06/25 08:47:43;;;;;;;14.95;10.70;;;21.10;99.90;;;;;;1927471;74;21143;-76
2021/06/25 08:50:13;;;;;;;19.40;10.70;;;21.10;99.90;;;;;;1926692;74;21190;-75
2021/06/25 08:52:44;;;;;;;12.05;9.40;;;21.20;99.90;;;;;;1911727;74;21112;-75
2021/06/25 08:55:13;;;;;;;11.35;9.78;;;21.20;99.90;;;;;;1928426;74;21065;-75
2021/06/25 08:57:41;;;;;;;14.38;11.35;;;21.20;99.90;;;;;;1933558;74;21775;-75
2021/06/25 09:00:11;;;;;;;13.32;10.58;;;21.20;99.90;;;;;;1910396;74;21186;-76
2021/06/25 09:02:39;;;;;;;15.53;10.72;;;21.20;99.90;;;;;;1920542;74;21109;-76
2021/06/25 09:05:08;;;;;;;12.63;9.85;;;21.20;99.90;;;;;;1923187;74;21116;-76
2021/06/25 09:07:43;;;;;;;11.05;8.95;;;21.30;99.90;;;;;;1931046;74;21082;-77
2021/06/25 09:10:12;;;;;;;15.32;10.03;;;21.40;99.90;;;;;;1915766;74;21069;-74
2021/06/25 09:12:40;;;;;;;15.90;9.28;;;21.40;99.90;;;;;;1925318;74;21104;-75
2021/06/25 09:15:17;;;;;;;14.23;10.35;;;21.50;99.90;;;;;;1922697;74;21152;-75
2021/06/25 09:17:59;;;;;;;14.68;10.80;;;21.70;99.90;;;;;;1911384;74;21622;-74
2021/06/25 09:20:30;;;;;;;;;;;21.80;99.20;;;;;;1906478;74;21175;-74
2021/06/25 09:22:58;;;;;;;15.40;10.50;;;21.80;99.70;;;;;;1921826;74;20176;-75
2021/06/25 09:25:26;;;;;;;14.43;9.98;;;21.70;99.80;;;;;;1925647;74;21053;-74
2021/06/25 09:28:02;;;;;;;11.83;9.23;;;21.70;99.80;;;;;;1930316;74;21065;-75
2021/06/25 09:30:31;;;;;;;12.68;10.20;;;21.70;99.90;;;;;;1920064;74;21101;-75
2021/06/25 09:32:59;;;;;;;13.22;10.40;;;21.70;99.90;;;;;;1881007;74;21163;-74
2021/06/25 09:35:26;;;;;;;12.58;10.65;;;21.60;99.40;;;;;;1905439;74;21093;-75
2021/06/25 09:37:54;;;;;;;12.00;9.35;;;21.50;99.40;;;;;;1924524;74;21594;-74
2021/06/25 09:40:22;;;;;;;13.83;10.18;;;21.60;99.60;;;;;;1924345;74;21716;-75
2021/06/25 09:43:11;;;;;;;15.43;10.03;;;21.50;99.60;;;;;;1928330;74;21581;-74
2021/06/25 09:45:41;;;;;;;13.53;10.05;;;21.50;99.50;;;;;;1924079;74;21017;-74
2021/06/25 09:48:09;;;;;;;19.52;11.60;;;21.40;99.60;;;;;;1921962;74;20993;-75
2021/06/25 09:50:37;;;;;;;14.30;10.75;;;21.50;99.90;;;;;;1923078;74;21503;-74
2021/06/25 09:53:07;;;;;;;11.35;9.73;;;21.60;99.90;;;;;;1915020;74;21500;-75
2021/06/25 09:55:59;;;;;;;14.85;11.60;;;21.70;99.90;;;;;;1923397;74;21115;-74
2021/06/25 10:01:22;;;;;;;12.43;10.03;;;22.00;99.30;;;;;;1926704;74;21097;-75
2021/06/25 10:04:02;;;;;;;14.25;9.48;;;22.10;99.20;;;;;;1927951;74;21148;-74
2021/06/25 10:06:32;;;;;;;13.88;9.88;;;22.20;98.20;;;;;;1892725;74;21183;-74
2021/06/25 10:09:00;;;;;;;12.82;10.43;;;22.30;98.40;;;;;;1916657;74;21109;-74
2021/06/25 10:11:29;;;;;;;12.40;9.28;;;22.30;96.90;;;;;;1921227;74;21587;-77
2021/06/25 10:13:59;;;;;;;16.00;8.15;;;22.20;96.60;;;;;;1930301;74;21069;-76
2021/06/25 10:16:27;;;;;;;11.63;9.15;;;22.30;96.80;;;;;;1920686;74;21205;-76
2021/06/25 10:18:58;;;;;;;10.03;8.43;;;22.20;95.60;;;;;;1929229;74;21057;-74
2021/06/25 10:21:31;;;;;;;11.67;8.40;;;22.20;95.40;;;;;;1918081;74;21126;-74
2021/06/25 10:24:01;;;;;;;12.55;9.60;;;22.30;96.50;;;;;;1921711;74;21143;-74
2021/06/25 10:26:30;;;;;;;10.93;8.58;;;22.30;97.20;;;;;;1899158;74;21132;-74
2021/06/25 10:28:58;;;;;;;13.25;9.38;;;22.50;98.40;;;;;;1922036;74;21080;-73
2021/06/25 10:31:26;;;;;;;12.47;9.00;;;22.60;98.20;;;;;;1931085;74;21081;-74
2021/06/25 10:33:55;;;;;;;15.28;9.00;;;22.80;97.20;;;;;;1884994;74;21166;-74
2021/06/25 10:36:32;;;;;;;11.63;7.67;;;22.90;96.50;;;;;;1910604;74;21515;-74
2021/06/25 10:39:09;;;;;;;12.18;8.40;;;22.90;95.90;;;;;;1920934;74;21158;-74
2021/06/25 10:41:57;;;;;;;12.68;8.45;;;22.80;95.60;;;;;;1926561;74;21095;-74
2021/06/25 10:44:45;;;;;;;13.03;9.03;;;22.70;95.70;;;;;;1903787;74;21151;-76
2021/06/25 10:47:18;;;;;;;12.53;10.35;;;22.80;95.10;;;;;;1914934;74;21618;-75
2021/06/25 10:50:13;;;;;;;12.70;9.20;;;22.90;95.70;;;;;;1922667;74;21644;-74
2021/06/25 10:52:44;;;;;;;10.72;9.60;;;22.90;95.30;;;;;;1904789;74;21548;-74
2021/06/25 10:55:16;;;;;;;11.97;8.28;;;22.90;95.10;;;;;;1924069;74;21089;-74
2021/06/25 10:57:55;;;;;;;12.07;8.20;;;22.90;96.20;;;;;;1909143;74;21172;-74
2021/06/25 11:00:28;;;;;;;15.48;9.75;;;22.90;97.10;;;;;;1918001;74;21011;-75
2021/06/25 11:02:56;;;;;;;12.13;10.82;;;23.00;96.70;;;;;;1924798;74;22107;-76
2021/06/25 11:05:29;;;;;;;15.13;10.85;;;22.90;96.20;;;;;;1904211;74;21715;-78
2021/06/25 11:08:00;;;;;;;14.55;10.28;;;23.00;97.20;;;;;;1928378;74;21069;-76
2021/06/25 11:10:33;;;;;;;12.95;9.60;;;23.10;97.00;;;;;;1934197;74;21186;-75
2021/06/25 11:13:21;;;;;;;16.57;9.55;;;23.10;96.30;;;;;;1930020;74;21159;-76
2021/06/25 11:15:57;;;;;;;12.15;9.65;;;23.10;96.80;;;;;;1922007;74;21170;-78
2021/06/25 11:18:26;;;;;;;11.57;8.70;;;23.10;98.40;;;;;;1930656;74;21104;-74
2021/06/25 11:21:04;;;;;;;17.05;9.55;;;23.30;98.60;;;;;;1935218;74;21065;-74
2021/06/25 11:23:44;;;;;;;9.13;8.23;;;23.30;97.00;;;;;;1913246;74;21033;-77
2021/06/25 11:26:20;;;;;;;10.85;8.03;;;23.40;94.20;;;;;;1927380;74;21081;-78
2021/06/25 11:28:50;;;;;;;12.53;10.00;;;23.40;95.60;;;;;;1912371;74;21083;-78
2021/06/25 11:31:21;;;;;;;12.43;8.53;;;23.40;93.70;;;;;;1918801;74;21108;-78
2021/06/25 11:33:57;;;;;;;12.65;8.38;;;23.50;94.50;;;;;;1910376;74;21108;-78
2021/06/25 11:36:51;;;;;;;12.30;9.08;;;23.50;94.70;;;;;;1914506;74;21137;-76
2021/06/25 11:39:36;;;;;;;13.88;7.47;;;23.60;96.40;;;;;;1872246;75;21190;-74
2021/06/25 11:42:07;;;;;;;9.43;8.20;;;23.70;96.50;;;;;;1868426;75;21607;-74
2021/06/25 11:44:44;;;;;;;12.58;7.78;;;23.60;93.60;;;;;;1864310;75;21124;-74
2021/06/25 11:47:26;;;;;;;10.13;6.60;;;23.60;95.70;;;;;;1866525;74;21118;-75
2021/06/25 11:52:25;;;;;;;10.80;7.72;;;23.60;92.00;;;;;;1861416;75;21510;-75
2021/06/25 11:54:56;;;;;;;9.05;6.70;;;23.50;90.70;;;;;;1878335;75;21117;-75
2021/06/25 11:57:27;;;;;;;8.10;6.28;;;23.50;91.10;;;;;;1857176;75;21125;-74
2021/06/25 12:00:09;;;;;;;9.33;6.62;;;23.60;91.60;;;;;;1859691;76;21088;-74
2021/06/25 12:02:48;;;;;;;10.72;6.22;;;23.70;91.40;;;;;;1860272;75;21157;-76
2021/06/25 12:05:18;;;;;;;9.23;5.97;;;23.70;87.40;;;;;;1881450;75;21187;-76
2021/06/25 12:07:47;;;;;;;9.88;7.20;;;23.70;88.10;;;;;;1869718;75;21108;-75
2021/06/25 12:10:19;;;;;;;6.30;4.83;;;23.60;87.00;;;;;;1871193;76;21083;-76
2021/06/25 12:12:48;;;;;;;7.62;5.75;;;23.80;87.90;;;;;;1881953;75;21178;-74
2021/06/25 12:15:15;;;;;;;9.90;5.45;;;23.90;89.40;;;;;;1867143;75;21100;-78
2021/06/25 12:17:48;;;;;;;7.90;5.50;;;24.00;88.90;;;;;;1870162;75;21154;-76
2021/06/25 12:20:28;;;;;;;6.67;5.65;;;24.20;89.00;;;;;;1849326;75;21129;-78
2021/06/25 12:23:00;;;;;;;13.28;6.47;;;24.20;84.80;;;;;;1876552;75;21099;-77
2021/06/25 12:25:31;;;;;;;8.33;5.55;;;24.30;87.50;;;;;;1850508;77;21540;-78
2021/06/25 12:28:02;;;;;;;6.17;5.30;;;24.30;87.50;;;;;;1850391;75;21115;-76
2021/06/25 12:30:30;;;;;;;6.53;5.17;;;24.20;85.10;;;;;;1847747;76;21136;-77
2021/06/25 12:33:08;;;;;;;5.78;5.08;;;24.20;89.00;;;;;;1859728;75;21009;-76
2021/06/25 12:35:41;;;;;;;7.00;5.05;;;24.20;85.30;;;;;;1845530;76;21016;-76
2021/06/25 12:38:11;;;;;;;7.37;4.87;;;24.30;87.20;;;;;;1864794;75;21204;-76
2021/06/25 12:40:50;;;;;;;7.28;5.55;;;24.50;90.20;;;;;;1852636;75;21638;-77
2021/06/25 12:43:30;;;;;;;6.42;4.95;;;24.40;85.90;;;;;;1862745;76;21080;-76
2021/06/25 12:46:00;;;;;;;6.67;5.05;;;24.50;81.90;;;;;;1859860;76;21541;-76
2021/06/25 12:48:30;;;;;;;7.10;5.90;;;24.40;81.20;;;;;;1864744;76;21111;-76
2021/06/25 12:51:02;;;;;;;6.15;5.30;;;24.50;75.80;;;;;;1864497;75;21043;-76
2021/06/25 12:53:32;;;;;;;7.50;5.30;;;24.50;80.00;;;;;;1855146;75;21153;-76
2021/06/25 12:56:06;;;;;;;7.97;5.65;;;24.60;81.40;;;;;;1861050;75;21094;-77
2021/06/25 12:58:39;;;;;;;9.33;5.92;;;24.60;79.90;;;;;;1864305;75;21077;-76
2021/06/25 13:01:07;;;;;;;15.43;6.85;;;24.60;81.50;;;;;;1868803;75;21090;-76
2021/06/25 13:03:35;;;;;;;8.98;5.47;;;24.60;78.40;;;;;;1856222;75;21049;-77